Flight Track Log - Related Links

Times and Time Zones

All times are in EDT time to prevent confusion due to time zone crossing. See the N724AE flight status page for this flight to view local times or setup timezone preferences in your user account.

Time Position Orientation Groundspeed Altitude Reporting Facility
EDT Latitude Longitude Course Direction KTS MPH feet Rate Location/Type
Mon 04:07:28 PM 32.8500 -97.0333 84° East 165 190 2,600  Level Dallas / Fort Worth TRACON
Mon 04:08:28 PM 32.8000 -97.0333 180° South 174 200 5,500 2,100 Climbing Dallas / Fort Worth TRACON
Mon 04:09:00 PM 32.6833 -96.8354 90° East  Level FlightAware Approximate
Mon 04:09:28 PM 32.7500 -97.0333 180° South 221 254 6,800  Level Dallas / Fort Worth TRACON
Mon 04:10:00 PM 32.6984 -96.7033 77° East  Level FlightAware Approximate
Mon 04:10:28 PM 32.7000 -96.9833 140° Southeast 277 319 8,600  Level Dallas / Fort Worth TRACON
Mon 04:11:00 PM 32.7229 -96.5724 77° East  Level FlightAware Approximate
Mon 04:12:00 PM 32.7397 -96.4401 84° East  Level FlightAware Approximate
Mon 04:12:20 PM 32.6961 -96.7986 91° East 310 357 10,100  Level Fort Worth Center
Mon 04:13:20 PM 32.7144 -96.6753 80° East 354 407 11,700 1,600 Climbing Fort Worth Center
Mon 04:14:20 PM 32.7303 -96.5664 80° East 373 429 13,300 1,900 Climbing Fort Worth Center
Mon 04:15:20 PM 32.7461 -96.4353 82° East 368 423 15,500 1,850 Climbing Fort Worth Center
Mon 04:16:20 PM 32.7597 -96.3289 81° East 368 423 17,000 1,550 Climbing Fort Worth Center
Mon 04:17:20 PM 32.7397 -96.1958 100° East 367 422 18,600 1,400 Climbing Fort Worth Center
Mon 04:18:20 PM 32.7219 -96.0825 101° East 372 428 19,800 1,600 Climbing Fort Worth Center
Mon 04:19:20 PM 32.6994 -95.9444 101° East 388 447 21,800 1,900 Climbing Fort Worth Center
Mon 04:20:20 PM 32.6814 -95.8139 99° East 395 455 23,600 1,800 Climbing Fort Worth Center
Mon 04:21:20 PM 32.6608 -95.6886 101° East 388 447 25,400 1,850 Climbing Fort Worth Center
Mon 04:22:20 PM 32.6631 -95.5578 89° East 388 447 27,300 1,850 Climbing Fort Worth Center
Mon 04:23:20 PM 32.6739 -95.4317 84° East 388 447 29,100 1,650 Climbing Fort Worth Center
Mon 04:24:20 PM 32.6822 -95.3056 85° East 388 447 30,600 1,250 Climbing Fort Worth Center
Mon 04:25:20 PM 32.6822 -95.1919 90° East 383 441 31,600 1,050 Climbing Fort Worth Center
Mon 04:26:20 PM 32.6528 -95.0669 106° East 389 448 32,700 1,100 Climbing Fort Worth Center
Mon 04:27:20 PM 32.6192 -94.9394 107° East 394 453 33,800 1,100 Climbing Fort Worth Center
Mon 04:28:20 PM 32.5853 -94.8122 108° East 394 453 34,900 1,000 Climbing Fort Worth Center
Mon 04:29:20 PM 32.5511 -94.6803 107° East 399 459 35,800 900 Climbing Fort Worth Center
Mon 04:30:20 PM 32.5169 -94.5506 107° East 407 468 36,700 600 Climbing Fort Worth Center
Mon 04:31:20 PM 32.4825 -94.4164 107° East 412 474 37,000 150 Climbing Fort Worth Center
Mon 04:32:20 PM 32.4456 -94.2747 107° East 429 494 37,000  Level Fort Worth Center
Mon 04:33:20 PM 32.4064 -94.1308 108° East 442 509 37,000  Level Fort Worth Center
Mon 04:34:20 PM 32.3692 -93.9822 106° East 458 527 37,000  Level Fort Worth Center
Mon 04:35:20 PM 32.3294 -93.8339 108° East 464 534 37,000  Level Fort Worth Center
Mon 04:37:23 PM 32.2483 -93.5319 108° East 481 554 37,000  Level Houston Center
Mon 04:38:25 PM 32.2067 -93.3800 108° East 485 558 37,000  Level Houston Center
Mon 04:39:27 PM 32.1564 -93.1978 108° East 486 559 37,000  Level Houston Center
Mon 04:40:29 PM 32.1153 -93.0469 108° East 484 557 37,000  Level Houston Center
Mon 04:41:31 PM 32.0725 -92.8956 108° East 480 552 37,000  Level Houston Center
Mon 04:42:33 PM 32.0314 -92.7472 108° East 478 550 37,000  Level Houston Center
Mon 04:43:35 PM 31.9894 -92.5989 108° East 477 549 37,000  Level Houston Center
Mon 04:44:37 PM 31.9481 -92.4514 108° East 476 548 37,000  Level Houston Center
Mon 04:45:39 PM 31.9056 -92.3042 109° East 476 548 37,000  Level Houston Center
Mon 04:46:42 PM 31.8569 -92.1297 108° East 471 542 37,000  Level Houston Center
Mon 04:47:44 PM 31.8164 -91.9869 108° East 468 539 37,000  Level Houston Center
Mon 04:48:46 PM 31.7750 -91.8422 109° East 466 536 37,000  Level Houston Center
Mon 04:49:48 PM 31.7328 -91.6964 109° East 467 537 37,000  Level Houston Center
Mon 04:50:50 PM 31.6908 -91.5508 109° East 469 540 37,000  Level Houston Center
Mon 04:51:52 PM 31.6483 -91.4056 109° East 470 541 37,000  Level Houston Center
Mon 04:52:54 PM 31.5961 -91.2308 109° East 472 543 37,000  Level Houston Center
Mon 04:53:56 PM 31.5542 -91.0872 109° East 471 542 37,000  Level Houston Center
Mon 04:54:59 PM 31.5103 -90.9417 109° East 472 543 37,000  Level Houston Center
Mon 04:56:01 PM 31.4664 -90.7975 110° East 470 541 37,000  Level Houston Center
Mon 04:57:03 PM 31.4228 -90.6528 109° East 471 542 37,000 -97 Level Houston Center
Mon 04:58:05 PM 31.3808 -90.5061 108° East 473 544 36,800 -629 Descending Houston Center
Mon 04:59:07 PM 31.3267 -90.3319 110° East 475 547 35,700 -871 Descending Houston Center
Mon 05:00:09 PM 31.2878 -90.1847 107° East 473 544 35,000 -435 Descending Houston Center
Mon 05:01:11 PM 31.2583 -90.0333 103° East 475 547 34,800 -576 Descending Houston Center
Mon 05:02:14 PM 31.2278 -89.8822 103° East 476 548 33,800 -960 Descending Houston Center
Mon 05:03:16 PM 31.1958 -89.7300 104° East 480 552 32,800 -968 Descending Houston Center
Mon 05:04:18 PM 31.1642 -89.5775 104° East 481 554 31,800 -871 Descending Houston Center
Mon 05:05:20 PM 31.1333 -89.4261 103° East 480 552 31,000 -387 Descending Houston Center
Mon 05:06:22 PM 31.0953 -89.2453 104° East 476 548 31,000  Level Houston Center
Mon 05:07:24 PM 31.0619 -89.0953 105° East 476 548 31,000  Level Houston Center
Mon 05:08:26 PM 31.0300 -88.9439 104° East 481 554 31,000 -339 Level Houston Center
Mon 05:09:28 PM 30.9950 -88.7864 104° East 481 554 30,300 -774 Descending Houston Center
Mon 05:10:30 PM 30.9619 -88.6350 104° East 486 559 29,400 -912 Descending Houston Center
Mon 05:11:33 PM 30.9300 -88.4892 104° East 484 557 28,400 -1,008 Descending Houston Center
Mon 05:12:35 PM 30.8908 -88.3056 104° East 488 562 27,300 -1,065 Descending Houston Center
Mon 05:13:37 PM 30.8561 -88.1503 105° East 496 571 26,200 -1,016 Descending Houston Center
Mon 05:14:39 PM 30.8219 -87.9961 104° East 493 567 25,200 -1,016 Descending Houston Center
Mon 05:15:41 PM 30.7886 -87.8439 104° East 489 563 24,100 -742 Descending Houston Center
Mon 05:16:16 PM 30.7664 -87.7564 106° East 484 557 24,000 -63 Descending Jacksonville Center
Mon 05:17:16 PM 30.7703 -87.6019 88° East 467 537 24,000 -50 Level Jacksonville Center
Mon 05:18:16 PM 30.7819 -87.4478 85° East 467 537 23,900 -1,400 Descending Jacksonville Center
Mon 05:19:16 PM 30.7914 -87.3008 86° East 467 537 21,200 -2,800 Descending Jacksonville Center
Mon 05:20:16 PM 30.8025 -87.1586 85° East 454 522 18,300 -2,750 Descending Jacksonville Center
Mon 05:21:16 PM 30.8092 -87.0236 87° East 429 494 15,700 -2,550 Descending Jacksonville Center
Mon 05:22:16 PM 30.8172 -86.8981 86° East 406 467 13,200 -2,300 Descending Jacksonville Center
Mon 05:23:16 PM 30.8250 -86.7847 85° East 372 428 11,100 -1,700 Descending Jacksonville Center
Mon 05:24:16 PM 30.8281 -86.6833 88° East 336 387 9,800 -1,450 Descending Jacksonville Center
Mon 05:25:16 PM 30.8244 -86.5914 93° East 308 354 8,200 -1,600 Descending Jacksonville Center
Mon 05:26:16 PM 30.7892 -86.5125 117° Southeast 267 307 6,600 -1,500 Descending Jacksonville Center
Mon 05:27:16 PM 30.7297 -86.4764 152° Southeast 231 266 5,200 -1,600 Descending Jacksonville Center
Mon 05:28:16 PM 30.6650 -86.4739 178° South 224 258 3,400 -1,800 Descending Jacksonville Center

Login

Don't have an account? Register now (free) for customized features, flight alerts, and more!